sensor_id;sensor_type;location;lat;lon;timestamp;P1;durP1;ratioP1;P2;durP2;ratioP2
49800;SDS011;35698;50.232;30.540;2023-02-21T00:00:57;3.00;;;2.14;;
49800;SDS011;35698;50.232;30.540;2023-02-21T00:02:00;3.72;;;2.67;;
49800;SDS011;35698;50.232;30.540;2023-02-21T00:03:04;2.70;;;2.36;;
49800;SDS011;35698;50.232;30.540;2023-02-21T00:04:15;3.56;;;2.30;;
49800;SDS011;35698;50.232;30.540;2023-02-21T00:05:18;3.00;;;2.43;;
49800;SDS011;35698;50.232;30.540;2023-02-21T00:06:22;2.62;;;2.42;;
49800;SDS011;35698;50.232;30.540;2023-02-21T00:07:26;3.69;;;2.52;;
49800;SDS011;35698;50.232;30.540;2023-02-21T00:08:37;3.71;;;2.80;;
49800;SDS011;35698;50.232;30.540;2023-02-21T00:09:40;3.59;;;2.19;;
49800;SDS011;35698;50.232;30.540;2023-02-21T00:10:43;2.63;;;2.32;;
49800;SDS011;35698;50.232;30.540;2023-02-21T00:11:46;4.24;;;2.99;;
49800;SDS011;35698;50.232;30.540;2023-02-21T00:12:50;3.09;;;2.39;;
49800;SDS011;35698;50.232;30.540;2023-02-21T00:14:01;3.28;;;2.69;;
49800;SDS011;35698;50.232;30.540;2023-02-21T00:15:05;4.29;;;2.31;;
49800;SDS011;35698;50.232;30.540;2023-02-21T00:16:13;2.72;;;2.33;;
49800;SDS011;35698;50.232;30.540;2023-02-21T00:17:18;2.96;;;2.55;;
49800;SDS011;35698;50.232;30.540;2023-02-21T00:18:33;4.28;;;2.59;;
49800;SDS011;35698;50.232;30.540;2023-02-21T00:19:37;2.89;;;2.54;;
49800;SDS011;35698;50.232;30.540;2023-02-21T00:20:41;3.86;;;2.67;;
49800;SDS011;35698;50.232;30.540;2023-02-21T00:21:44;4.45;;;2.93;;
49800;SDS011;35698;50.232;30.540;2023-02-21T00:22:48;2.93;;;2.30;;
49800;SDS011;35698;50.232;30.540;2023-02-21T00:23:59;3.25;;;2.76;;
49800;SDS011;35698;50.232;30.540;2023-02-21T00:25:02;3.15;;;2.30;;
49800;SDS011;35698;50.232;30.540;2023-02-21T00:26:07;5.63;;;2.77;;
49800;SDS011;35698;50.232;30.540;2023-02-21T00:27:10;3.19;;;2.83;;
49800;SDS011;35698;50.232;30.540;2023-02-21T00:28:21;3.06;;;2.73;;
49800;SDS011;35698;50.232;30.540;2023-02-21T00:29:25;3.40;;;2.66;;
49800;SDS011;35698;50.232;30.540;2023-02-21T00:30:28;3.37;;;2.64;;
49800;SDS011;35698;50.232;30.540;2023-02-21T00:31:31;2.32;;;2.11;;
49800;SDS011;35698;50.232;30.540;2023-02-21T00:32:52;4.66;;;2.72;;
49800;SDS011;35698;50.232;30.540;2023-02-21T00:34:14;3.81;;;2.65;;
49800;SDS011;35698;50.232;30.540;2023-02-21T00:35:25;4.25;;;2.72;;
49800;SDS011;35698;50.232;30.540;2023-02-21T00:36:28;3.86;;;2.66;;
49800;SDS011;35698;50.232;30.540;2023-02-21T00:37:59;4.34;;;2.80;;
49800;SDS011;35698;50.232;30.540;2023-02-21T00:39:02;3.49;;;2.52;;
49800;SDS011;35698;50.232;30.540;2023-02-21T00:40:14;4.29;;;2.85;;
49800;SDS011;35698;50.232;30.540;2023-02-21T00:41:20;3.83;;;2.68;;
49800;SDS011;35698;50.232;30.540;2023-02-21T00:42:23;4.43;;;2.95;;
49800;SDS011;35698;50.232;30.540;2023-02-21T00:43:35;3.73;;;2.47;;
49800;SDS011;35698;50.232;30.540;2023-02-21T00:44:39;2.92;;;2.52;;
49800;SDS011;35698;50.232;30.540;2023-02-21T00:45:42;3.41;;;2.66;;
49800;SDS011;35698;50.232;30.540;2023-02-21T00:46:47;3.71;;;2.78;;
49800;SDS011;35698;50.232;30.540;2023-02-21T00:48:08;3.86;;;3.08;;
49800;SDS011;35698;50.232;30.540;2023-02-21T00:49:30;4.32;;;3.18;;
49800;SDS011;35698;50.232;30.540;2023-02-21T00:51:00;2.75;;;2.49;;
49800;SDS011;35698;50.232;30.540;2023-02-21T00:52:03;4.71;;;3.43;;
49800;SDS011;35698;50.232;30.540;2023-02-21T00:53:07;5.04;;;3.67;;
49800;SDS011;35698;50.232;30.540;2023-02-21T00:54:18;5.43;;;3.27;;
49800;SDS011;35698;50.232;30.540;2023-02-21T00:55:22;3.28;;;2.68;;
49800;SDS011;35698;50.232;30.540;2023-02-21T00:56:25;3.47;;;2.69;;
49800;SDS011;35698;50.232;30.540;2023-02-21T00:57:28;4.03;;;2.92;;
49800;SDS011;35698;50.232;30.540;2023-02-21T00:58:40;4.46;;;2.58;;
49800;SDS011;35698;50.232;30.540;2023-02-21T00:59:43;3.52;;;2.72;;
49800;SDS011;35698;50.232;30.540;2023-02-21T01:00:49;3.43;;;2.49;;
49800;SDS011;35698;50.232;30.540;2023-02-21T01:01:52;3.24;;;2.84;;
49800;SDS011;35698;50.232;30.540;2023-02-21T01:02:56;4.01;;;2.82;;
49800;SDS011;35698;50.232;30.540;2023-02-21T01:04:07;4.42;;;2.79;;
49800;SDS011;35698;50.232;30.540;2023-02-21T01:05:10;3.94;;;2.93;;
49800;SDS011;35698;50.232;30.540;2023-02-21T01:06:14;3.83;;;3.06;;
49800;SDS011;35698;50.232;30.540;2023-02-21T01:07:18;5.00;;;3.23;;
49800;SDS011;35698;50.232;30.540;2023-02-21T01:08:29;3.33;;;2.60;;
49800;SDS011;35698;50.232;30.540;2023-02-21T01:09:32;4.12;;;3.15;;
49800;SDS011;35698;50.232;30.540;2023-02-21T01:10:36;3.36;;;2.70;;
49800;SDS011;35698;50.232;30.540;2023-02-21T01:11:39;4.80;;;3.72;;
49800;SDS011;35698;50.232;30.540;2023-02-21T01:12:50;4.51;;;2.77;;
49800;SDS011;35698;50.232;30.540;2023-02-21T01:13:54;5.89;;;2.91;;
49800;SDS011;35698;50.232;30.540;2023-02-21T01:15:05;3.78;;;3.39;;
49800;SDS011;35698;50.232;30.540;2023-02-21T01:17:34;3.06;;;2.78;;
49800;SDS011;35698;50.232;30.540;2023-02-21T01:18:45;5.09;;;3.36;;
49800;SDS011;35698;50.232;30.540;2023-02-21T01:19:48;4.30;;;2.85;;
49800;SDS011;35698;50.232;30.540;2023-02-21T01:20:52;3.54;;;2.86;;
49800;SDS011;35698;50.232;30.540;2023-02-21T01:21:58;4.33;;;3.33;;
49800;SDS011;35698;50.232;30.540;2023-02-21T01:23:01;3.79;;;3.00;;
49800;SDS011;35698;50.232;30.540;2023-02-21T01:24:13;3.07;;;2.71;;
49800;SDS011;35698;50.232;30.540;2023-02-21T01:25:17;3.52;;;2.81;;
49800;SDS011;35698;50.232;30.540;2023-02-21T01:26:21;3.63;;;2.67;;
49800;SDS011;35698;50.232;30.540;2023-02-21T01:27:32;3.86;;;2.89;;
49800;SDS011;35698;50.232;30.540;2023-02-21T01:28:35;4.82;;;3.22;;
49800;SDS011;35698;50.232;30.540;2023-02-21T01:29:47;6.91;;;2.69;;
49800;SDS011;35698;50.232;30.540;2023-02-21T01:30:50;3.95;;;2.79;;
49800;SDS011;35698;50.232;30.540;2023-02-21T01:31:57;4.25;;;2.82;;
49800;SDS011;35698;50.232;30.540;2023-02-21T01:33:00;3.56;;;2.84;;
49800;SDS011;35698;50.232;30.540;2023-02-21T01:34:11;4.21;;;2.94;;
49800;SDS011;35698;50.232;30.540;2023-02-21T01:35:15;3.22;;;2.75;;
49800;SDS011;35698;50.232;30.540;2023-02-21T01:36:19;4.49;;;3.12;;
49800;SDS011;35698;50.232;30.540;2023-02-21T01:37:23;2.99;;;2.74;;
49800;SDS011;35698;50.232;30.540;2023-02-21T01:38:34;13.26;;;4.01;;
49800;SDS011;35698;50.232;30.540;2023-02-21T01:39:38;3.41;;;2.58;;
49800;SDS011;35698;50.232;30.540;2023-02-21T01:40:41;3.82;;;2.96;;
49800;SDS011;35698;50.232;30.540;2023-02-21T01:41:45;3.60;;;2.66;;
49800;SDS011;35698;50.232;30.540;2023-02-21T01:42:51;4.08;;;2.84;;
49800;SDS011;35698;50.232;30.540;2023-02-21T01:44:03;4.62;;;2.88;;
49800;SDS011;35698;50.232;30.540;2023-02-21T01:46:30;3.24;;;2.72;;
49800;SDS011;35698;50.232;30.540;2023-02-21T01:47:33;4.16;;;3.02;;
49800;SDS011;35698;50.232;30.540;2023-02-21T01:48:44;4.58;;;2.92;;
49800;SDS011;35698;50.232;30.540;2023-02-21T01:49:49;3.16;;;2.57;;
49800;SDS011;35698;50.232;30.540;2023-02-21T01:50:56;4.06;;;2.71;;
49800;SDS011;35698;50.232;30.540;2023-02-21T01:52:02;4.10;;;2.73;;
49800;SDS011;35698;50.232;30.540;2023-02-21T01:53:09;3.16;;;2.74;;
49800;SDS011;35698;50.232;30.540;2023-02-21T01:54:25;3.42;;;2.31;;
49800;SDS011;35698;50.232;30.540;2023-02-21T01:55:31;4.37;;;2.94;;
49800;SDS011;35698;50.232;30.540;2023-02-21T01:56:35;3.25;;;2.71;;
49800;SDS011;35698;50.232;30.540;2023-02-21T01:57:40;4.76;;;3.06;;
49800;SDS011;35698;50.232;30.540;2023-02-21T01:58:54;2.99;;;2.49;;
49800;SDS011;35698;50.232;30.540;2023-02-21T02:00:02;3.92;;;2.64;;
49800;SDS011;35698;50.232;30.540;2023-02-21T02:01:07;3.93;;;2.66;;
49800;SDS011;35698;50.232;30.540;2023-02-21T02:05:02;3.77;;;3.00;;
49800;SDS011;35698;50.232;30.540;2023-02-21T02:06:09;3.72;;;2.63;;
49800;SDS011;35698;50.232;30.540;2023-02-21T02:07:32;3.53;;;2.22;;
49800;SDS011;35698;50.232;30.540;2023-02-21T02:08:44;5.14;;;2.41;;
49800;SDS011;35698;50.232;30.540;2023-02-21T02:09:47;4.33;;;2.58;;
49800;SDS011;35698;50.232;30.540;2023-02-21T02:10:53;4.72;;;1.79;;
49800;SDS011;35698;50.232;30.540;2023-02-21T02:14:09;4.17;;;2.22;;
49800;SDS011;35698;50.232;30.540;2023-02-21T02:39:47;2.58;;;1.77;;
49800;SDS011;35698;50.232;30.540;2023-02-21T02:45:45;3.32;;;2.20;;
49800;SDS011;35698;50.232;30.540;2023-02-21T02:46:54;5.11;;;1.85;;
49800;SDS011;35698;50.232;30.540;2023-02-21T02:48:21;4.57;;;1.80;;
49800;SDS011;35698;50.232;30.540;2023-02-21T02:49:40;4.87;;;2.52;;
49800;SDS011;35698;50.232;30.540;2023-02-21T02:50:46;2.73;;;1.92;;
49800;SDS011;35698;50.232;30.540;2023-02-21T02:51:51;2.86;;;1.83;;
49800;SDS011;35698;50.232;30.540;2023-02-21T02:53:02;2.23;;;1.87;;
49800;SDS011;35698;50.232;30.540;2023-02-21T02:54:06;3.09;;;1.95;;
49800;SDS011;35698;50.232;30.540;2023-02-21T02:56:34;3.07;;;1.82;;
49800;SDS011;35698;50.232;30.540;2023-02-21T02:57:45;2.40;;;1.42;;
49800;SDS011;35698;50.232;30.540;2023-02-21T02:58:50;1.30;;;1.21;;
49800;SDS011;35698;50.232;30.540;2023-02-21T02:59:56;3.77;;;1.72;;
49800;SDS011;35698;50.232;30.540;2023-02-21T03:02:49;4.70;;;2.00;;
49800;SDS011;35698;50.232;30.540;2023-02-21T03:04:00;2.82;;;1.56;;
49800;SDS011;35698;50.232;30.540;2023-02-21T03:06:46;2.22;;;1.49;;
49800;SDS011;35698;50.232;30.540;2023-02-21T03:09:28;2.07;;;1.36;;
49800;SDS011;35698;50.232;30.540;2023-02-21T03:12:18;1.72;;;1.36;;
49800;SDS011;35698;50.232;30.540;2023-02-21T03:15:00;2.01;;;1.06;;
49800;SDS011;35698;50.232;30.540;2023-02-21T03:16:22;2.08;;;1.46;;
49800;SDS011;35698;50.232;30.540;2023-02-21T03:17:41;2.97;;;1.36;;
49800;SDS011;35698;50.232;30.540;2023-02-21T03:19:11;3.13;;;1.47;;
49800;SDS011;35698;50.232;30.540;2023-02-21T03:20:36;1.82;;;1.46;;
49800;SDS011;35698;50.232;30.540;2023-02-21T03:21:43;3.51;;;1.56;;
49800;SDS011;35698;50.232;30.540;2023-02-21T03:22:57;2.17;;;1.20;;
49800;SDS011;35698;50.232;30.540;2023-02-21T03:24:03;2.63;;;1.39;;
49800;SDS011;35698;50.232;30.540;2023-02-21T03:25:28;3.02;;;1.69;;
49800;SDS011;35698;50.232;30.540;2023-02-21T03:26:35;2.76;;;1.67;;
49800;SDS011;35698;50.232;30.540;2023-02-21T03:27:58;1.72;;;1.19;;
49800;SDS011;35698;50.232;30.540;2023-02-21T03:29:02;3.72;;;1.68;;
49800;SDS011;35698;50.232;30.540;2023-02-21T03:30:25;1.90;;;1.39;;
49800;SDS011;35698;50.232;30.540;2023-02-21T03:31:30;2.26;;;1.35;;
49800;SDS011;35698;50.232;30.540;2023-02-21T03:32:43;1.87;;;1.37;;
49800;SDS011;35698;50.232;30.540;2023-02-21T03:34:02;1.97;;;1.32;;
49800;SDS011;35698;50.232;30.540;2023-02-21T03:35:10;3.90;;;1.81;;
49800;SDS011;35698;50.232;30.540;2023-02-21T03:36:35;2.41;;;1.48;;
49800;SDS011;35698;50.232;30.540;2023-02-21T03:37:49;3.63;;;1.76;;
49800;SDS011;35698;50.232;30.540;2023-02-21T03:38:53;2.58;;;1.33;;
49800;SDS011;35698;50.232;30.540;2023-02-21T03:40:18;4.46;;;1.52;;
49800;SDS011;35698;50.232;30.540;2023-02-21T03:41:44;2.65;;;1.38;;
49800;SDS011;35698;50.232;30.540;2023-02-21T03:43:03;2.94;;;1.51;;
49800;SDS011;35698;50.232;30.540;2023-02-21T03:44:09;3.72;;;1.65;;
49800;SDS011;35698;50.232;30.540;2023-02-21T03:45:20;3.84;;;1.42;;
49800;SDS011;35698;50.232;30.540;2023-02-21T03:46:24;5.50;;;1.62;;
49800;SDS011;35698;50.232;30.540;2023-02-21T03:47:35;2.96;;;1.36;;
49800;SDS011;35698;50.232;30.540;2023-02-21T03:48:38;4.24;;;1.58;;
49800;SDS011;35698;50.232;30.540;2023-02-21T03:49:49;2.71;;;1.43;;
49800;SDS011;35698;50.232;30.540;2023-02-21T03:50:53;4.59;;;1.45;;
49800;SDS011;35698;50.232;30.540;2023-02-21T03:51:56;5.64;;;1.56;;
49800;SDS011;35698;50.232;30.540;2023-02-21T03:53:18;2.47;;;1.48;;
49800;SDS011;35698;50.232;30.540;2023-02-21T03:54:29;2.36;;;1.13;;
49800;SDS011;35698;50.232;30.540;2023-02-21T03:55:32;2.29;;;1.44;;
49800;SDS011;35698;50.232;30.540;2023-02-21T03:56:35;3.94;;;1.49;;
49800;SDS011;35698;50.232;30.540;2023-02-21T03:57:57;3.77;;;1.86;;
49800;SDS011;35698;50.232;30.540;2023-02-21T03:59:08;3.57;;;1.36;;
49800;SDS011;35698;50.232;30.540;2023-02-21T04:00:12;2.72;;;1.56;;
49800;SDS011;35698;50.232;30.540;2023-02-21T04:01:17;4.87;;;1.84;;
49800;SDS011;35698;50.232;30.540;2023-02-21T04:02:38;3.04;;;1.44;;
49800;SDS011;35698;50.232;30.540;2023-02-21T04:03:49;4.44;;;1.46;;
49800;SDS011;35698;50.232;30.540;2023-02-21T04:04:53;4.60;;;1.52;;
49800;SDS011;35698;50.232;30.540;2023-02-21T04:05:56;3.45;;;1.77;;
49800;SDS011;35698;50.232;30.540;2023-02-21T04:07:18;2.94;;;1.50;;
49800;SDS011;35698;50.232;30.540;2023-02-21T04:08:30;4.41;;;1.56;;
49800;SDS011;35698;50.232;30.540;2023-02-21T04:09:33;3.35;;;1.60;;
49800;SDS011;35698;50.232;30.540;2023-02-21T04:10:36;3.46;;;1.53;;
49800;SDS011;35698;50.232;30.540;2023-02-21T04:11:42;4.04;;;1.38;;
49800;SDS011;35698;50.232;30.540;2023-02-21T04:12:54;3.16;;;1.56;;
49800;SDS011;35698;50.232;30.540;2023-02-21T04:13:57;4.58;;;1.41;;
49800;SDS011;35698;50.232;30.540;2023-02-21T04:15:01;4.00;;;1.46;;
49800;SDS011;35698;50.232;30.540;2023-02-21T04:16:04;3.39;;;1.73;;
49800;SDS011;35698;50.232;30.540;2023-02-21T04:17:16;3.64;;;2.20;;
49800;SDS011;35698;50.232;30.540;2023-02-21T04:18:31;5.56;;;1.55;;
49800;SDS011;35698;50.232;30.540;2023-02-21T04:19:34;2.77;;;1.32;;
49800;SDS011;35698;50.232;30.540;2023-02-21T04:20:46;2.99;;;1.48;;
49800;SDS011;35698;50.232;30.540;2023-02-21T04:21:50;5.77;;;1.59;;
49800;SDS011;35698;50.232;30.540;2023-02-21T04:23:01;3.83;;;1.43;;
49800;SDS011;35698;50.232;30.540;2023-02-21T04:24:06;3.89;;;1.38;;
49800;SDS011;35698;50.232;30.540;2023-02-21T04:25:10;3.80;;;1.45;;
49800;SDS011;35698;50.232;30.540;2023-02-21T04:26:14;3.49;;;1.31;;
49800;SDS011;35698;50.232;30.540;2023-02-21T04:27:17;2.42;;;1.35;;
49800;SDS011;35698;50.232;30.540;2023-02-21T04:28:28;4.40;;;1.79;;
49800;SDS011;35698;50.232;30.540;2023-02-21T04:29:31;3.14;;;1.46;;
49800;SDS011;35698;50.232;30.540;2023-02-21T04:30:34;2.66;;;1.18;;
49800;SDS011;35698;50.232;30.540;2023-02-21T04:31:38;3.29;;;1.80;;
49800;SDS011;35698;50.232;30.540;2023-02-21T04:32:42;2.84;;;1.30;;
49800;SDS011;35698;50.232;30.540;2023-02-21T04:33:53;2.98;;;1.41;;
49800;SDS011;35698;50.232;30.540;2023-02-21T04:34:58;2.17;;;1.18;;
49800;SDS011;35698;50.232;30.540;2023-02-21T04:36:01;1.89;;;1.24;;
49800;SDS011;35698;50.232;30.540;2023-02-21T04:37:12;4.66;;;1.41;;
49800;SDS011;35698;50.232;30.540;2023-02-21T04:38:16;5.34;;;1.62;;
49800;SDS011;35698;50.232;30.540;2023-02-21T04:39:19;3.81;;;1.51;;
49800;SDS011;35698;50.232;30.540;2023-02-21T04:40:23;1.99;;;1.16;;
49800;SDS011;35698;50.232;30.540;2023-02-21T04:41:26;2.86;;;1.36;;
49800;SDS011;35698;50.232;30.540;2023-02-21T04:42:37;1.48;;;1.19;;
49800;SDS011;35698;50.232;30.540;2023-02-21T04:43:41;2.08;;;1.35;;
49800;SDS011;35698;50.232;30.540;2023-02-21T04:44:53;2.89;;;1.36;;
49800;SDS011;35698;50.232;30.540;2023-02-21T04:45:58;3.20;;;1.58;;
49800;SDS011;35698;50.232;30.540;2023-02-21T04:47:02;4.10;;;1.12;;
49800;SDS011;35698;50.232;30.540;2023-02-21T04:48:13;2.51;;;1.23;;
49800;SDS011;35698;50.232;30.540;2023-02-21T04:49:16;6.40;;;1.26;;
49800;SDS011;35698;50.232;30.540;2023-02-21T04:50:19;3.46;;;1.06;;
49800;SDS011;35698;50.232;30.540;2023-02-21T04:51:30;2.48;;;1.07;;
49800;SDS011;35698;50.232;30.540;2023-02-21T04:52:34;2.42;;;1.12;;
49800;SDS011;35698;50.232;30.540;2023-02-21T04:53:45;2.61;;;1.15;;
49800;SDS011;35698;50.232;30.540;2023-02-21T04:54:50;2.97;;;1.14;;
49800;SDS011;35698;50.232;30.540;2023-02-21T04:56:12;3.79;;;1.21;;
49800;SDS011;35698;50.232;30.540;2023-02-21T04:57:16;1.87;;;1.01;;
49800;SDS011;35698;50.232;30.540;2023-02-21T04:58:27;2.92;;;1.14;;
49800;SDS011;35698;50.232;30.540;2023-02-21T04:59:32;1.94;;;0.96;;
49800;SDS011;35698;50.232;30.540;2023-02-21T05:00:53;3.51;;;1.09;;
49800;SDS011;35698;50.232;30.540;2023-02-21T05:02:04;3.08;;;1.58;;
49800;SDS011;35698;50.232;30.540;2023-02-21T05:03:09;2.87;;;1.63;;
49800;SDS011;35698;50.232;30.540;2023-02-21T05:04:31;3.61;;;1.47;;
49800;SDS011;35698;50.232;30.540;2023-02-21T05:05:34;2.29;;;1.02;;
49800;SDS011;35698;50.232;30.540;2023-02-21T05:06:45;2.91;;;1.36;;
49800;SDS011;35698;50.232;30.540;2023-02-21T05:07:48;4.12;;;1.72;;
49800;SDS011;35698;50.232;30.540;2023-02-21T05:09:10;3.35;;;1.52;;
49800;SDS011;35698;50.232;30.540;2023-02-21T05:10:21;6.14;;;1.52;;
49800;SDS011;35698;50.232;30.540;2023-02-21T05:11:24;2.46;;;1.24;;
49800;SDS011;35698;50.232;30.540;2023-02-21T05:12:46;3.56;;;1.40;;
49800;SDS011;35698;50.232;30.540;2023-02-21T05:13:57;3.09;;;1.43;;
49800;SDS011;35698;50.232;30.540;2023-02-21T05:15:02;2.78;;;1.54;;
49800;SDS011;35698;50.232;30.540;2023-02-21T05:17:28;2.55;;;1.54;;
49800;SDS011;35698;50.232;30.540;2023-02-21T05:18:42;3.16;;;1.47;;
49800;SDS011;35698;50.232;30.540;2023-02-21T05:19:47;2.94;;;1.20;;
49800;SDS011;35698;50.232;30.540;2023-02-21T05:21:09;3.25;;;1.46;;
49800;SDS011;35698;50.232;30.540;2023-02-21T05:22:12;2.16;;;1.13;;
49800;SDS011;35698;50.232;30.540;2023-02-21T05:23:23;2.79;;;1.22;;
49800;SDS011;35698;50.232;30.540;2023-02-21T05:24:28;3.47;;;1.46;;
49800;SDS011;35698;50.232;30.540;2023-02-21T05:25:32;1.61;;;1.09;;
49800;SDS011;35698;50.232;30.540;2023-02-21T05:28:00;3.57;;;1.45;;
49800;SDS011;35698;50.232;30.540;2023-02-21T05:29:04;2.14;;;1.34;;
49800;SDS011;35698;50.232;30.540;2023-02-21T05:30:08;3.11;;;1.44;;
49800;SDS011;35698;50.232;30.540;2023-02-21T05:31:12;3.42;;;1.81;;
49800;SDS011;35698;50.232;30.540;2023-02-21T05:32:17;5.85;;;1.69;;
49800;SDS011;35698;50.232;30.540;2023-02-21T05:33:29;4.13;;;2.29;;
49800;SDS011;35698;50.232;30.540;2023-02-21T05:34:33;7.24;;;2.33;;
49800;SDS011;35698;50.232;30.540;2023-02-21T05:35:36;3.52;;;1.96;;
49800;SDS011;35698;50.232;30.540;2023-02-21T05:36:39;3.62;;;1.72;;
49800;SDS011;35698;50.232;30.540;2023-02-21T05:37:51;4.14;;;2.16;;
49800;SDS011;35698;50.232;30.540;2023-02-21T05:38:55;6.78;;;2.90;;
49800;SDS011;35698;50.232;30.540;2023-02-21T05:39:58;6.05;;;2.60;;
49800;SDS011;35698;50.232;30.540;2023-02-21T05:41:02;4.86;;;2.29;;
49800;SDS011;35698;50.232;30.540;2023-02-21T05:42:13;6.62;;;3.19;;
49800;SDS011;35698;50.232;30.540;2023-02-21T05:43:17;8.60;;;3.33;;
49800;SDS011;35698;50.232;30.540;2023-02-21T05:44:28;6.54;;;2.92;;
49800;SDS011;35698;50.232;30.540;2023-02-21T05:45:31;10.33;;;4.15;;
49800;SDS011;35698;50.232;30.540;2023-02-21T05:46:35;9.53;;;4.04;;
49800;SDS011;35698;50.232;30.540;2023-02-21T05:47:46;6.53;;;2.58;;
49800;SDS011;35698;50.232;30.540;2023-02-21T05:48:49;10.22;;;3.69;;
49800;SDS011;35698;50.232;30.540;2023-02-21T05:50:01;5.38;;;2.31;;
49800;SDS011;35698;50.232;30.540;2023-02-21T05:51:05;9.56;;;3.44;;
49800;SDS011;35698;50.232;30.540;2023-02-21T05:52:27;5.32;;;2.28;;
49800;SDS011;35698;50.232;30.540;2023-02-21T05:53:38;5.01;;;2.42;;
49800;SDS011;35698;50.232;30.540;2023-02-21T05:54:41;4.73;;;1.76;;
49800;SDS011;35698;50.232;30.540;2023-02-21T05:56:04;4.07;;;2.00;;
49800;SDS011;35698;50.232;30.540;2023-02-21T05:57:15;7.66;;;3.15;;
49800;SDS011;35698;50.232;30.540;2023-02-21T05:58:18;3.86;;;1.64;;
49800;SDS011;35698;50.232;30.540;2023-02-21T05:59:40;7.45;;;2.65;;
49800;SDS011;35698;50.232;30.540;2023-02-21T06:00:46;6.92;;;1.69;;
49800;SDS011;35698;50.232;30.540;2023-02-21T06:01:53;6.48;;;2.73;;
49800;SDS011;35698;50.232;30.540;2023-02-21T06:03:04;9.40;;;3.00;;
49800;SDS011;35698;50.232;30.540;2023-02-21T06:04:08;5.91;;;2.04;;
49800;SDS011;35698;50.232;30.540;2023-02-21T06:05:30;4.62;;;2.19;;
49800;SDS011;35698;50.232;30.540;2023-02-21T06:06:34;4.00;;;1.54;;
49800;SDS011;35698;50.232;30.540;2023-02-21T06:07:45;4.33;;;2.07;;
49800;SDS011;35698;50.232;30.540;2023-02-21T06:08:49;3.42;;;1.99;;
49800;SDS011;35698;50.232;30.540;2023-02-21T06:10:11;3.98;;;1.73;;
49800;SDS011;35698;50.232;30.540;2023-02-21T06:11:24;4.75;;;1.67;;
49800;SDS011;35698;50.232;30.540;2023-02-21T06:12:29;3.90;;;1.41;;
49800;SDS011;35698;50.232;30.540;2023-02-21T06:14:56;5.66;;;1.56;;
49800;SDS011;35698;50.232;30.540;2023-02-21T06:16:07;4.50;;;1.85;;
49800;SDS011;35698;50.232;30.540;2023-02-21T06:17:10;5.26;;;1.79;;
49800;SDS011;35698;50.232;30.540;2023-02-21T06:18:32;5.50;;;2.32;;
49800;SDS011;35698;50.232;30.540;2023-02-21T06:19:43;10.91;;;1.89;;
49800;SDS011;35698;50.232;30.540;2023-02-21T06:20:46;2.02;;;1.36;;
49800;SDS011;35698;50.232;30.540;2023-02-21T06:21:50;6.33;;;2.32;;
49800;SDS011;35698;50.232;30.540;2023-02-21T06:23:01;2.93;;;1.46;;
49800;SDS011;35698;50.232;30.540;2023-02-21T06:24:04;6.69;;;2.33;;
49800;SDS011;35698;50.232;30.540;2023-02-21T06:25:08;6.45;;;2.79;;
49800;SDS011;35698;50.232;30.540;2023-02-21T06:26:20;3.52;;;1.63;;
49800;SDS011;35698;50.232;30.540;2023-02-21T06:27:24;4.39;;;2.08;;
49800;SDS011;35698;50.232;30.540;2023-02-21T06:28:28;4.34;;;1.34;;
49800;SDS011;35698;50.232;30.540;2023-02-21T06:29:33;2.98;;;1.34;;
49800;SDS011;35698;50.232;30.540;2023-02-21T06:30:44;4.86;;;1.78;;
49800;SDS011;35698;50.232;30.540;2023-02-21T06:31:48;6.25;;;1.92;;
49800;SDS011;35698;50.232;30.540;2023-02-21T06:32:51;4.66;;;2.16;;
49800;SDS011;35698;50.232;30.540;2023-02-21T06:33:55;3.00;;;1.58;;
49800;SDS011;35698;50.232;30.540;2023-02-21T06:35:06;5.09;;;1.63;;
49800;SDS011;35698;50.232;30.540;2023-02-21T06:36:11;2.36;;;1.07;;
49800;SDS011;35698;50.232;30.540;2023-02-21T06:37:25;3.89;;;1.55;;
49800;SDS011;35698;50.232;30.540;2023-02-21T06:38:29;3.38;;;1.10;;
49800;SDS011;35698;50.232;30.540;2023-02-21T06:39:40;4.18;;;1.48;;
49800;SDS011;35698;50.232;30.540;2023-02-21T06:40:44;2.48;;;1.12;;
49800;SDS011;35698;50.232;30.540;2023-02-21T06:41:55;3.71;;;1.43;;
49800;SDS011;35698;50.232;30.540;2023-02-21T06:42:58;3.30;;;1.52;;
49800;SDS011;35698;50.232;30.540;2023-02-21T06:44:10;6.31;;;2.39;;
49800;SDS011;35698;50.232;30.540;2023-02-21T06:45:14;2.42;;;1.38;;
49800;SDS011;35698;50.232;30.540;2023-02-21T06:46:29;2.36;;;1.21;;
49800;SDS011;35698;50.232;30.540;2023-02-21T06:47:33;2.92;;;1.31;;
49800;SDS011;35698;50.232;30.540;2023-02-21T06:48:53;2.78;;;1.09;;
49800;SDS011;35698;50.232;30.540;2023-02-21T06:49:56;3.70;;;1.99;;
49800;SDS011;35698;50.232;30.540;2023-02-21T06:51:00;4.59;;;1.69;;
49800;SDS011;35698;50.232;30.540;2023-02-21T06:52:12;2.54;;;1.24;;
49800;SDS011;35698;50.232;30.540;2023-02-21T06:53:16;2.44;;;1.17;;
49800;SDS011;35698;50.232;30.540;2023-02-21T06:54:27;6.94;;;1.59;;
49800;SDS011;35698;50.232;30.540;2023-02-21T06:55:31;2.94;;;1.28;;
49800;SDS011;35698;50.232;30.540;2023-02-21T06:56:42;2.53;;;1.53;;
49800;SDS011;35698;50.232;30.540;2023-02-21T06:57:46;3.12;;;1.27;;
49800;SDS011;35698;50.232;30.540;2023-02-21T06:59:08;3.58;;;1.55;;
49800;SDS011;35698;50.232;30.540;2023-02-21T07:00:12;2.69;;;1.40;;
49800;SDS011;35698;50.232;30.540;2023-02-21T07:01:19;3.21;;;1.42;;
49800;SDS011;35698;50.232;30.540;2023-02-21T07:02:27;3.99;;;1.45;;
49800;SDS011;35698;50.232;30.540;2023-02-21T07:03:39;4.67;;;2.03;;
49800;SDS011;35698;50.232;30.540;2023-02-21T07:04:43;3.08;;;1.44;;
49800;SDS011;35698;50.232;30.540;2023-02-21T07:05:48;5.95;;;1.69;;
49800;SDS011;35698;50.232;30.540;2023-02-21T07:06:59;5.77;;;1.56;;
49800;SDS011;35698;50.232;30.540;2023-02-21T07:08:03;3.69;;;1.71;;
49800;SDS011;35698;50.232;30.540;2023-02-21T07:09:10;3.27;;;1.54;;
49800;SDS011;35698;50.232;30.540;2023-02-21T07:10:14;3.93;;;1.92;;
49800;SDS011;35698;50.232;30.540;2023-02-21T07:11:30;4.38;;;1.91;;
49800;SDS011;35698;50.232;30.540;2023-02-21T07:12:35;2.62;;;1.31;;
49800;SDS011;35698;50.232;30.540;2023-02-21T07:13:50;4.82;;;1.94;;
49800;SDS011;35698;50.232;30.540;2023-02-21T07:14:54;4.52;;;1.62;;
49800;SDS011;35698;50.232;30.540;2023-02-21T07:15:58;4.04;;;2.03;;
49800;SDS011;35698;50.232;30.540;2023-02-21T07:17:09;2.41;;;1.36;;
49800;SDS011;35698;50.232;30.540;2023-02-21T07:18:12;5.12;;;1.78;;
49800;SDS011;35698;50.232;30.540;2023-02-21T07:19:24;3.34;;;1.56;;
49800;SDS011;35698;50.232;30.540;2023-02-21T07:20:27;3.20;;;1.72;;
49800;SDS011;35698;50.232;30.540;2023-02-21T07:21:38;3.66;;;1.89;;
49800;SDS011;35698;50.232;30.540;2023-02-21T07:22:41;5.10;;;1.71;;
49800;SDS011;35698;50.232;30.540;2023-02-21T07:23:53;4.08;;;1.67;;
49800;SDS011;35698;50.232;30.540;2023-02-21T07:24:56;2.98;;;1.36;;
49800;SDS011;35698;50.232;30.540;2023-02-21T07:26:03;4.67;;;1.67;;
49800;SDS011;35698;50.232;30.540;2023-02-21T07:27:14;5.01;;;1.98;;
49800;SDS011;35698;50.232;30.540;2023-02-21T07:28:25;2.87;;;1.57;;
49800;SDS011;35698;50.232;30.540;2023-02-21T07:29:28;3.02;;;1.69;;
49800;SDS011;35698;50.232;30.540;2023-02-21T07:30:32;4.36;;;1.44;;
49800;SDS011;35698;50.232;30.540;2023-02-21T07:31:43;2.52;;;1.17;;
49800;SDS011;35698;50.232;30.540;2023-02-21T07:32:47;3.49;;;1.29;;
49800;SDS011;35698;50.232;30.540;2023-02-21T07:33:58;3.49;;;1.27;;
49800;SDS011;35698;50.232;30.540;2023-02-21T07:35:02;4.87;;;2.22;;
49800;SDS011;35698;50.232;30.540;2023-02-21T07:36:25;3.53;;;1.42;;